sensor_id;sensor_type;location;lat;lon;timestamp;P1;durP1;ratioP1;P2;durP2;ratioP2
7460;SDS011;6757;52.258;12.840;2023-04-24T00:01:05;2.33;;;1.92;;
7460;SDS011;6757;52.258;12.840;2023-04-24T00:03:34;4.15;;;2.00;;
7460;SDS011;6757;52.258;12.840;2023-04-24T00:06:01;5.53;;;2.35;;
7460;SDS011;6757;52.258;12.840;2023-04-24T00:08:29;3.92;;;2.20;;
7460;SDS011;6757;52.258;12.840;2023-04-24T00:10:56;5.13;;;2.33;;
7460;SDS011;6757;52.258;12.840;2023-04-24T00:13:23;4.15;;;2.08;;
7460;SDS011;6757;52.258;12.840;2023-04-24T00:15:50;3.95;;;2.30;;
7460;SDS011;6757;52.258;12.840;2023-04-24T00:18:17;4.30;;;2.25;;
7460;SDS011;6757;52.258;12.840;2023-04-24T00:20:44;3.67;;;2.20;;
7460;SDS011;6757;52.258;12.840;2023-04-24T00:23:11;3.17;;;2.00;;
7460;SDS011;6757;52.258;12.840;2023-04-24T00:25:40;3.85;;;2.22;;
7460;SDS011;6757;52.258;12.840;2023-04-24T00:28:07;4.63;;;2.35;;
7460;SDS011;6757;52.258;12.840;2023-04-24T00:30:34;3.45;;;2.00;;
7460;SDS011;6757;52.258;12.840;2023-04-24T00:33:01;3.53;;;2.10;;
7460;SDS011;6757;52.258;12.840;2023-04-24T00:35:28;3.72;;;2.25;;
7460;SDS011;6757;52.258;12.840;2023-04-24T00:37:55;7.63;;;2.47;;
7460;SDS011;6757;52.258;12.840;2023-04-24T00:40:22;3.75;;;2.08;;
7460;SDS011;6757;52.258;12.840;2023-04-24T00:42:50;5.03;;;2.30;;
7460;SDS011;6757;52.258;12.840;2023-04-24T00:45:17;4.95;;;2.38;;
7460;SDS011;6757;52.258;12.840;2023-04-24T00:47:44;3.70;;;1.90;;
7460;SDS011;6757;52.258;12.840;2023-04-24T00:50:14;7.28;;;2.60;;
7460;SDS011;6757;52.258;12.840;2023-04-24T00:52:42;5.55;;;2.58;;
7460;SDS011;6757;52.258;12.840;2023-04-24T00:55:09;6.70;;;2.30;;
7460;SDS011;6757;52.258;12.840;2023-04-24T00:57:36;5.97;;;2.60;;
7460;SDS011;6757;52.258;12.840;2023-04-24T01:00:05;6.78;;;2.90;;
7460;SDS011;6757;52.258;12.840;2023-04-24T01:02:37;4.43;;;2.42;;
7460;SDS011;6757;52.258;12.840;2023-04-24T01:05:09;4.38;;;2.60;;
7460;SDS011;6757;52.258;12.840;2023-04-24T01:07:36;5.72;;;2.70;;
7460;SDS011;6757;52.258;12.840;2023-04-24T01:10:05;5.32;;;2.38;;
7460;SDS011;6757;52.258;12.840;2023-04-24T01:12:33;4.53;;;1.80;;
7460;SDS011;6757;52.258;12.840;2023-04-24T01:15:01;3.70;;;1.90;;
7460;SDS011;6757;52.258;12.840;2023-04-24T01:17:31;3.92;;;2.30;;
7460;SDS011;6757;52.258;12.840;2023-04-24T01:19:58;3.42;;;2.30;;
7460;SDS011;6757;52.258;12.840;2023-04-24T01:22:27;5.05;;;2.50;;
7460;SDS011;6757;52.258;12.840;2023-04-24T01:24:54;5.75;;;2.70;;
7460;SDS011;6757;52.258;12.840;2023-04-24T01:27:21;4.97;;;2.08;;
7460;SDS011;6757;52.258;12.840;2023-04-24T01:29:48;4.45;;;2.40;;
7460;SDS011;6757;52.258;12.840;2023-04-24T01:32:16;5.07;;;2.67;;
7460;SDS011;6757;52.258;12.840;2023-04-24T01:34:44;4.25;;;2.30;;
7460;SDS011;6757;52.258;12.840;2023-04-24T01:37:12;4.57;;;2.28;;
7460;SDS011;6757;52.258;12.840;2023-04-24T01:39:42;4.70;;;2.20;;
7460;SDS011;6757;52.258;12.840;2023-04-24T01:42:09;5.40;;;2.55;;
7460;SDS011;6757;52.258;12.840;2023-04-24T01:44:36;6.47;;;2.50;;
7460;SDS011;6757;52.258;12.840;2023-04-24T01:47:03;7.40;;;2.75;;
7460;SDS011;6757;52.258;12.840;2023-04-24T01:49:31;3.95;;;2.35;;
7460;SDS011;6757;52.258;12.840;2023-04-24T01:51:59;3.75;;;2.10;;
7460;SDS011;6757;52.258;12.840;2023-04-24T01:54:26;4.68;;;2.25;;
7460;SDS011;6757;52.258;12.840;2023-04-24T01:56:54;3.70;;;2.08;;
7460;SDS011;6757;52.258;12.840;2023-04-24T01:59:21;5.13;;;1.80;;
7460;SDS011;6757;52.258;12.840;2023-04-24T02:01:51;5.45;;;2.15;;
7460;SDS011;6757;52.258;12.840;2023-04-24T02:04:18;2.83;;;1.83;;
7460;SDS011;6757;52.258;12.840;2023-04-24T02:06:45;5.72;;;2.50;;
7460;SDS011;6757;52.258;12.840;2023-04-24T02:09:12;4.30;;;1.77;;
7460;SDS011;6757;52.258;12.840;2023-04-24T02:11:39;5.72;;;2.40;;
7460;SDS011;6757;52.258;12.840;2023-04-24T02:14:07;4.60;;;1.88;;
7460;SDS011;6757;52.258;12.840;2023-04-24T02:16:34;5.50;;;2.20;;
7460;SDS011;6757;52.258;12.840;2023-04-24T02:19:01;5.50;;;2.25;;
7460;SDS011;6757;52.258;12.840;2023-04-24T02:21:28;4.40;;;2.15;;
7460;SDS011;6757;52.258;12.840;2023-04-24T02:23:56;4.60;;;2.22;;
7460;SDS011;6757;52.258;12.840;2023-04-24T02:26:23;5.88;;;2.58;;
7460;SDS011;6757;52.258;12.840;2023-04-24T02:28:50;6.00;;;2.40;;
7460;SDS011;6757;52.258;12.840;2023-04-24T02:31:18;10.60;;;2.95;;
7460;SDS011;6757;52.258;12.840;2023-04-24T02:33:45;6.30;;;2.67;;
7460;SDS011;6757;52.258;12.840;2023-04-24T02:36:13;3.97;;;2.08;;
7460;SDS011;6757;52.258;12.840;2023-04-24T02:38:41;4.88;;;2.20;;
7460;SDS011;6757;52.258;12.840;2023-04-24T02:41:08;3.60;;;1.95;;
7460;SDS011;6757;52.258;12.840;2023-04-24T02:43:36;1.83;;;1.73;;
7460;SDS011;6757;52.258;12.840;2023-04-24T02:46:04;5.13;;;2.60;;
7460;SDS011;6757;52.258;12.840;2023-04-24T02:48:34;8.63;;;2.85;;
7460;SDS011;6757;52.258;12.840;2023-04-24T02:51:03;5.55;;;2.70;;
7460;SDS011;6757;52.258;12.840;2023-04-24T02:53:31;5.03;;;2.83;;
7460;SDS011;6757;52.258;12.840;2023-04-24T02:55:58;6.10;;;3.08;;
7460;SDS011;6757;52.258;12.840;2023-04-24T02:58:25;5.82;;;3.10;;
7460;SDS011;6757;52.258;12.840;2023-04-24T03:00:53;5.78;;;2.45;;
7460;SDS011;6757;52.258;12.840;2023-04-24T03:03:21;8.30;;;2.92;;
7460;SDS011;6757;52.258;12.840;2023-04-24T03:05:50;7.95;;;2.72;;
7460;SDS011;6757;52.258;12.840;2023-04-24T03:08:17;6.55;;;3.25;;
7460;SDS011;6757;52.258;12.840;2023-04-24T03:10:44;4.57;;;2.10;;
7460;SDS011;6757;52.258;12.840;2023-04-24T03:13:11;5.07;;;2.47;;
7460;SDS011;6757;52.258;12.840;2023-04-24T03:15:38;6.13;;;3.03;;
7460;SDS011;6757;52.258;12.840;2023-04-24T03:18:05;5.57;;;2.40;;
7460;SDS011;6757;52.258;12.840;2023-04-24T03:20:32;5.32;;;2.50;;
7460;SDS011;6757;52.258;12.840;2023-04-24T03:23:00;8.38;;;3.53;;
7460;SDS011;6757;52.258;12.840;2023-04-24T03:25:28;5.25;;;2.47;;
7460;SDS011;6757;52.258;12.840;2023-04-24T03:27:54;6.25;;;2.83;;
7460;SDS011;6757;52.258;12.840;2023-04-24T03:30:21;6.65;;;2.75;;
7460;SDS011;6757;52.258;12.840;2023-04-24T03:32:49;5.97;;;2.08;;
7460;SDS011;6757;52.258;12.840;2023-04-24T03:35:16;4.28;;;2.53;;
7460;SDS011;6757;52.258;12.840;2023-04-24T03:37:43;4.78;;;2.05;;
7460;SDS011;6757;52.258;12.840;2023-04-24T03:40:11;3.47;;;2.25;;
7460;SDS011;6757;52.258;12.840;2023-04-24T03:42:38;5.85;;;2.22;;
7460;SDS011;6757;52.258;12.840;2023-04-24T03:45:06;4.80;;;1.98;;
7460;SDS011;6757;52.258;12.840;2023-04-24T03:47:34;4.78;;;2.85;;
7460;SDS011;6757;52.258;12.840;2023-04-24T03:50:01;3.47;;;2.15;;
7460;SDS011;6757;52.258;12.840;2023-04-24T03:52:29;3.30;;;2.30;;
7460;SDS011;6757;52.258;12.840;2023-04-24T03:54:56;4.03;;;2.30;;
7460;SDS011;6757;52.258;12.840;2023-04-24T03:57:25;3.83;;;2.10;;
7460;SDS011;6757;52.258;12.840;2023-04-24T03:59:51;4.13;;;2.17;;
7460;SDS011;6757;52.258;12.840;2023-04-24T04:02:19;5.10;;;2.03;;
7460;SDS011;6757;52.258;12.840;2023-04-24T04:04:46;4.07;;;2.13;;
7460;SDS011;6757;52.258;12.840;2023-04-24T04:07:13;4.18;;;2.13;;
7460;SDS011;6757;52.258;12.840;2023-04-24T04:09:40;2.22;;;1.52;;
7460;SDS011;6757;52.258;12.840;2023-04-24T04:12:07;2.92;;;2.00;;
7460;SDS011;6757;52.258;12.840;2023-04-24T04:14:35;5.35;;;2.60;;
7460;SDS011;6757;52.258;12.840;2023-04-24T04:17:02;3.22;;;1.88;;
7460;SDS011;6757;52.258;12.840;2023-04-24T04:19:29;4.85;;;2.28;;
7460;SDS011;6757;52.258;12.840;2023-04-24T04:21:56;3.58;;;1.80;;
7460;SDS011;6757;52.258;12.840;2023-04-24T04:24:24;3.35;;;1.65;;
7460;SDS011;6757;52.258;12.840;2023-04-24T04:26:51;4.10;;;1.83;;
7460;SDS011;6757;52.258;12.840;2023-04-24T04:29:21;1.75;;;1.52;;
7460;SDS011;6757;52.258;12.840;2023-04-24T04:31:50;4.35;;;1.83;;
7460;SDS011;6757;52.258;12.840;2023-04-24T04:34:17;2.53;;;1.73;;
7460;SDS011;6757;52.258;12.840;2023-04-24T04:36:44;5.95;;;2.10;;
7460;SDS011;6757;52.258;12.840;2023-04-24T04:39:11;2.03;;;1.50;;
7460;SDS011;6757;52.258;12.840;2023-04-24T04:41:40;7.60;;;2.33;;
7460;SDS011;6757;52.258;12.840;2023-04-24T04:44:06;5.50;;;2.00;;
7460;SDS011;6757;52.258;12.840;2023-04-24T04:46:34;3.53;;;1.98;;
7460;SDS011;6757;52.258;12.840;2023-04-24T04:49:04;2.20;;;1.70;;
7460;SDS011;6757;52.258;12.840;2023-04-24T04:51:33;2.33;;;1.90;;
7460;SDS011;6757;52.258;12.840;2023-04-24T04:54:00;2.90;;;1.75;;
7460;SDS011;6757;52.258;12.840;2023-04-24T04:56:27;3.75;;;1.80;;
7460;SDS011;6757;52.258;12.840;2023-04-24T04:58:54;3.50;;;1.70;;
7460;SDS011;6757;52.258;12.840;2023-04-24T05:01:21;4.38;;;1.60;;
7460;SDS011;6757;52.258;12.840;2023-04-24T05:03:49;2.38;;;1.50;;
7460;SDS011;6757;52.258;12.840;2023-04-24T05:06:17;1.73;;;1.60;;
7460;SDS011;6757;52.258;12.840;2023-04-24T05:08:44;2.45;;;1.00;;
7460;SDS011;6757;52.258;12.840;2023-04-24T05:11:11;2.65;;;1.45;;
7460;SDS011;6757;52.258;12.840;2023-04-24T05:13:38;1.48;;;1.27;;
7460;SDS011;6757;52.258;12.840;2023-04-24T05:16:05;3.80;;;1.38;;
7460;SDS011;6757;52.258;12.840;2023-04-24T05:18:32;3.15;;;1.63;;
7460;SDS011;6757;52.258;12.840;2023-04-24T05:20:59;4.20;;;1.73;;
7460;SDS011;6757;52.258;12.840;2023-04-24T05:23:28;1.45;;;1.10;;
7460;SDS011;6757;52.258;12.840;2023-04-24T05:25:55;4.28;;;1.60;;
7460;SDS011;6757;52.258;12.840;2023-04-24T05:28:22;3.65;;;1.35;;
7460;SDS011;6757;52.258;12.840;2023-04-24T05:30:53;1.65;;;1.40;;
7460;SDS011;6757;52.258;12.840;2023-04-24T05:33:20;3.80;;;1.63;;
7460;SDS011;6757;52.258;12.840;2023-04-24T05:35:48;2.03;;;1.20;;
7460;SDS011;6757;52.258;12.840;2023-04-24T05:38:15;2.15;;;1.25;;
7460;SDS011;6757;52.258;12.840;2023-04-24T05:40:44;3.13;;;1.30;;
7460;SDS011;6757;52.258;12.840;2023-04-24T05:43:11;1.38;;;1.15;;
7460;SDS011;6757;52.258;12.840;2023-04-24T05:45:38;1.30;;;1.20;;
7460;SDS011;6757;52.258;12.840;2023-04-24T05:48:05;4.10;;;2.38;;
7460;SDS011;6757;52.258;12.840;2023-04-24T05:50:32;1.48;;;1.20;;
7460;SDS011;6757;52.258;12.840;2023-04-24T05:52:59;1.17;;;0.98;;
7460;SDS011;6757;52.258;12.840;2023-04-24T05:55:27;5.28;;;1.73;;
7460;SDS011;6757;52.258;12.840;2023-04-24T05:57:55;3.10;;;1.20;;
7460;SDS011;6757;52.258;12.840;2023-04-24T06:00:23;1.50;;;1.40;;
7460;SDS011;6757;52.258;12.840;2023-04-24T06:02:50;5.22;;;2.10;;
7460;SDS011;6757;52.258;12.840;2023-04-24T06:05:17;1.05;;;1.00;;
7460;SDS011;6757;52.258;12.840;2023-04-24T06:07:44;1.45;;;1.27;;
7460;SDS011;6757;52.258;12.840;2023-04-24T06:10:11;1.70;;;1.40;;
7460;SDS011;6757;52.258;12.840;2023-04-24T06:12:39;1.30;;;0.88;;
7460;SDS011;6757;52.258;12.840;2023-04-24T06:15:08;1.02;;;1.02;;
7460;SDS011;6757;52.258;12.840;2023-04-24T06:17:35;1.17;;;1.17;;
7460;SDS011;6757;52.258;12.840;2023-04-24T06:20:02;1.60;;;1.15;;
7460;SDS011;6757;52.258;12.840;2023-04-24T06:22:31;1.45;;;1.35;;
7460;SDS011;6757;52.258;12.840;2023-04-24T06:24:59;1.27;;;1.10;;
7460;SDS011;6757;52.258;12.840;2023-04-24T06:27:26;1.40;;;1.13;;
7460;SDS011;6757;52.258;12.840;2023-04-24T06:29:53;2.40;;;1.20;;
7460;SDS011;6757;52.258;12.840;2023-04-24T06:32:22;1.67;;;1.00;;
7460;SDS011;6757;52.258;12.840;2023-04-24T06:34:50;0.80;;;0.80;;
7460;SDS011;6757;52.258;12.840;2023-04-24T06:37:18;2.25;;;1.10;;
7460;SDS011;6757;52.258;12.840;2023-04-24T06:39:46;1.02;;;0.98;;
7460;SDS011;6757;52.258;12.840;2023-04-24T06:42:13;0.82;;;0.82;;
7460;SDS011;6757;52.258;12.840;2023-04-24T06:44:40;1.30;;;1.17;;
7460;SDS011;6757;52.258;12.840;2023-04-24T06:47:07;1.25;;;0.98;;
7460;SDS011;6757;52.258;12.840;2023-04-24T06:49:36;2.10;;;1.20;;
7460;SDS011;6757;52.258;12.840;2023-04-24T06:52:04;1.45;;;1.35;;
7460;SDS011;6757;52.258;12.840;2023-04-24T06:54:31;1.30;;;1.20;;
7460;SDS011;6757;52.258;12.840;2023-04-24T06:56:59;2.60;;;1.17;;
7460;SDS011;6757;52.258;12.840;2023-04-24T06:59:27;2.90;;;1.65;;
7460;SDS011;6757;52.258;12.840;2023-04-24T07:01:54;0.88;;;0.88;;
7460;SDS011;6757;52.258;12.840;2023-04-24T07:04:22;6.28;;;1.60;;
7460;SDS011;6757;52.258;12.840;2023-04-24T07:06:52;1.15;;;0.88;;
7460;SDS011;6757;52.258;12.840;2023-04-24T07:09:20;1.30;;;1.20;;
7460;SDS011;6757;52.258;12.840;2023-04-24T07:11:48;2.83;;;1.00;;
7460;SDS011;6757;52.258;12.840;2023-04-24T07:14:16;1.38;;;1.10;;
7460;SDS011;6757;52.258;12.840;2023-04-24T07:16:43;2.17;;;1.27;;
7460;SDS011;6757;52.258;12.840;2023-04-24T07:19:11;2.30;;;1.50;;
7460;SDS011;6757;52.258;12.840;2023-04-24T07:21:38;2.33;;;1.45;;
7460;SDS011;6757;52.258;12.840;2023-04-24T07:24:06;0.93;;;0.93;;
7460;SDS011;6757;52.258;12.840;2023-04-24T07:26:35;1.55;;;1.08;;
7460;SDS011;6757;52.258;12.840;2023-04-24T07:29:04;1.65;;;1.50;;
7460;SDS011;6757;52.258;12.840;2023-04-24T07:31:31;2.08;;;1.10;;
7460;SDS011;6757;52.258;12.840;2023-04-24T07:33:58;2.22;;;1.50;;
7460;SDS011;6757;52.258;12.840;2023-04-24T07:36:25;1.42;;;1.33;;
7460;SDS011;6757;52.258;12.840;2023-04-24T07:38:53;1.88;;;1.50;;
7460;SDS011;6757;52.258;12.840;2023-04-24T07:41:23;1.10;;;1.10;;
7460;SDS011;6757;52.258;12.840;2023-04-24T07:43:50;2.25;;;1.58;;
7460;SDS011;6757;52.258;12.840;2023-04-24T07:46:17;0.85;;;0.85;;
7460;SDS011;6757;52.258;12.840;2023-04-24T07:48:44;1.90;;;1.45;;
7460;SDS011;6757;52.258;12.840;2023-04-24T07:51:13;1.20;;;1.20;;
7460;SDS011;6757;52.258;12.840;2023-04-24T07:53:40;1.58;;;1.45;;
7460;SDS011;6757;52.258;12.840;2023-04-24T07:56:07;2.15;;;1.25;;
7460;SDS011;6757;52.258;12.840;2023-04-24T07:58:36;1.38;;;1.10;;
7460;SDS011;6757;52.258;12.840;2023-04-24T08:01:03;2.05;;;1.00;;
7460;SDS011;6757;52.258;12.840;2023-04-24T08:03:30;2.13;;;1.50;;
7460;SDS011;6757;52.258;12.840;2023-04-24T08:05:57;1.30;;;1.20;;
7460;SDS011;6757;52.258;12.840;2023-04-24T08:08:24;1.80;;;1.08;;
7460;SDS011;6757;52.258;12.840;2023-04-24T08:10:51;0.88;;;0.73;;
7460;SDS011;6757;52.258;12.840;2023-04-24T08:13:18;2.00;;;1.25;;
7460;SDS011;6757;52.258;12.840;2023-04-24T08:15:47;1.77;;;1.48;;
7460;SDS011;6757;52.258;12.840;2023-04-24T08:18:14;2.13;;;1.30;;
7460;SDS011;6757;52.258;12.840;2023-04-24T08:20:41;0.90;;;0.90;;
7460;SDS011;6757;52.258;12.840;2023-04-24T08:23:08;1.33;;;1.13;;
7460;SDS011;6757;52.258;12.840;2023-04-24T08:25:35;1.42;;;1.33;;
7460;SDS011;6757;52.258;12.840;2023-04-24T08:28:02;1.85;;;1.17;;
7460;SDS011;6757;52.258;12.840;2023-04-24T08:30:31;1.67;;;1.33;;
7460;SDS011;6757;52.258;12.840;2023-04-24T08:33:00;1.35;;;1.00;;
7460;SDS011;6757;52.258;12.840;2023-04-24T08:35:27;1.55;;;1.00;;
7460;SDS011;6757;52.258;12.840;2023-04-24T08:37:54;1.20;;;1.10;;
7460;SDS011;6757;52.258;12.840;2023-04-24T08:40:22;0.95;;;0.95;;
7460;SDS011;6757;52.258;12.840;2023-04-24T08:42:54;1.13;;;1.13;;
7460;SDS011;6757;52.258;12.840;2023-04-24T08:45:22;1.33;;;1.33;;
7460;SDS011;6757;52.258;12.840;2023-04-24T08:47:51;1.52;;;1.40;;
7460;SDS011;6757;52.258;12.840;2023-04-24T08:50:20;1.42;;;1.30;;
7460;SDS011;6757;52.258;12.840;2023-04-24T08:52:49;1.00;;;1.00;;
7460;SDS011;6757;52.258;12.840;2023-04-24T08:55:18;0.70;;;0.70;;
7460;SDS011;6757;52.258;12.840;2023-04-24T08:57:48;2.47;;;1.23;;
7460;SDS011;6757;52.258;12.840;2023-04-24T09:00:18;1.48;;;1.30;;
7460;SDS011;6757;52.258;12.840;2023-04-24T09:02:46;1.00;;;1.00;;
7460;SDS011;6757;52.258;12.840;2023-04-24T09:05:16;3.05;;;1.40;;
7460;SDS011;6757;52.258;12.840;2023-04-24T09:07:47;3.20;;;1.48;;
7460;SDS011;6757;52.258;12.840;2023-04-24T09:10:20;0.98;;;0.98;;
7460;SDS011;6757;52.258;12.840;2023-04-24T09:12:48;2.85;;;1.55;;
7460;SDS011;6757;52.258;12.840;2023-04-24T09:15:17;1.30;;;1.23;;
7460;SDS011;6757;52.258;12.840;2023-04-24T09:17:45;0.98;;;0.93;;
7460;SDS011;6757;52.258;12.840;2023-04-24T09:20:12;1.23;;;1.23;;
7460;SDS011;6757;52.258;12.840;2023-04-24T09:22:40;1.33;;;1.23;;
7460;SDS011;6757;52.258;12.840;2023-04-24T09:25:10;1.90;;;1.23;;
7460;SDS011;6757;52.258;12.840;2023-04-24T09:27:40;1.17;;;1.00;;
7460;SDS011;6757;52.258;12.840;2023-04-24T09:30:09;1.35;;;1.25;;
7460;SDS011;6757;52.258;12.840;2023-04-24T09:32:37;1.00;;;0.90;;
7460;SDS011;6757;52.258;12.840;2023-04-24T09:35:05;1.38;;;1.35;;
7460;SDS011;6757;52.258;12.840;2023-04-24T09:37:38;1.75;;;1.10;;
7460;SDS011;6757;52.258;12.840;2023-04-24T09:40:10;1.48;;;1.15;;
7460;SDS011;6757;52.258;12.840;2023-04-24T09:45:10;1.25;;;1.08;;
7460;SDS011;6757;52.258;12.840;2023-04-24T09:47:37;2.05;;;1.40;;
7460;SDS011;6757;52.258;12.840;2023-04-24T09:50:15;0.90;;;0.90;;
7460;SDS011;6757;52.258;12.840;2023-04-24T09:55:13;1.73;;;1.40;;
7460;SDS011;6757;52.258;12.840;2023-04-24T09:57:47;3.00;;;1.33;;
7460;SDS011;6757;52.258;12.840;2023-04-24T10:00:20;2.92;;;1.30;;
7460;SDS011;6757;52.258;12.840;2023-04-24T10:02:50;1.20;;;1.20;;
7460;SDS011;6757;52.258;12.840;2023-04-24T10:05:22;2.05;;;1.35;;
7460;SDS011;6757;52.258;12.840;2023-04-24T10:10:24;1.20;;;1.20;;
7460;SDS011;6757;52.258;12.840;2023-04-24T10:12:52;2.63;;;1.23;;
7460;SDS011;6757;52.258;12.840;2023-04-24T10:15:21;1.00;;;1.00;;
7460;SDS011;6757;52.258;12.840;2023-04-24T10:17:48;1.52;;;1.42;;
7460;SDS011;6757;52.258;12.840;2023-04-24T10:20:19;2.17;;;1.30;;
7460;SDS011;6757;52.258;12.840;2023-04-24T10:22:48;1.75;;;1.40;;
7460;SDS011;6757;52.258;12.840;2023-04-24T10:25:17;1.02;;;1.02;;
7460;SDS011;6757;52.258;12.840;2023-04-24T10:27:48;1.50;;;1.35;;
7460;SDS011;6757;52.258;12.840;2023-04-24T10:30:16;0.70;;;0.70;;
7460;SDS011;6757;52.258;12.840;2023-04-24T10:32:44;1.13;;;0.77;;
7460;SDS011;6757;52.258;12.840;2023-04-24T10:35:12;1.20;;;1.17;;
7460;SDS011;6757;52.258;12.840;2023-04-24T10:37:41;1.15;;;0.90;;
7460;SDS011;6757;52.258;12.840;2023-04-24T10:40:16;1.40;;;0.85;;
7460;SDS011;6757;52.258;12.840;2023-04-24T10:42:48;0.93;;;0.88;;
7460;SDS011;6757;52.258;12.840;2023-04-24T10:45:18;0.98;;;0.95;;
7460;SDS011;6757;52.258;12.840;2023-04-24T10:47:59;0.73;;;0.73;;
7460;SDS011;6757;52.258;12.840;2023-04-24T10:50:30;0.80;;;0.80;;
7460;SDS011;6757;52.258;12.840;2023-04-24T10:53:12;1.17;;;1.13;;
7460;SDS011;6757;52.258;12.840;2023-04-24T10:55:44;1.35;;;1.08;;
7460;SDS011;6757;52.258;12.840;2023-04-24T10:58:14;2.25;;;1.25;;
7460;SDS011;6757;52.258;12.840;2023-04-24T11:00:43;2.47;;;1.30;;
7460;SDS011;6757;52.258;12.840;2023-04-24T11:03:23;1.10;;;1.00;;
7460;SDS011;6757;52.258;12.840;2023-04-24T11:05:57;0.73;;;0.73;;
7460;SDS011;6757;52.258;12.840;2023-04-24T11:08:27;1.05;;;1.02;;
7460;SDS011;6757;52.258;12.840;2023-04-24T11:11:08;1.00;;;1.00;;
7460;SDS011;6757;52.258;12.840;2023-04-24T11:16:42;1.38;;;1.27;;
7460;SDS011;6757;52.258;12.840;2023-04-24T11:19:17;0.85;;;0.85;;
7460;SDS011;6757;52.258;12.840;2023-04-24T11:21:50;1.20;;;1.10;;
7460;SDS011;6757;52.258;12.840;2023-04-24T11:24:26;4.28;;;1.40;;
7460;SDS011;6757;52.258;12.840;2023-04-24T11:26:57;2.13;;;1.33;;
7460;SDS011;6757;52.258;12.840;2023-04-24T11:29:39;1.67;;;1.08;;
7460;SDS011;6757;52.258;12.840;2023-04-24T11:32:16;2.47;;;1.35;;
7460;SDS011;6757;52.258;12.840;2023-04-24T11:34:52;2.10;;;1.60;;
7460;SDS011;6757;52.258;12.840;2023-04-24T11:37:21;1.27;;;1.23;;
7460;SDS011;6757;52.258;12.840;2023-04-24T11:39:50;1.80;;;1.17;;
7460;SDS011;6757;52.258;12.840;2023-04-24T11:42:19;1.40;;;1.10;;
7460;SDS011;6757;52.258;12.840;2023-04-24T11:44:49;1.25;;;1.20;;
7460;SDS011;6757;52.258;12.840;2023-04-24T11:47:16;1.23;;;1.20;;
7460;SDS011;6757;52.258;12.840;2023-04-24T11:49:43;1.10;;;1.00;;
7460;SDS011;6757;52.258;12.840;2023-04-24T11:52:10;2.15;;;1.52;;
7460;SDS011;6757;52.258;12.840;2023-04-24T11:54:38;1.00;;;1.00;;
7460;SDS011;6757;52.258;12.840;2023-04-24T11:57:14;3.65;;;1.30;;
7460;SDS011;6757;52.258;12.840;2023-04-24T11:59:41;0.93;;;0.93;;
7460;SDS011;6757;52.258;12.840;2023-04-24T12:02:10;2.83;;;0.98;;
7460;SDS011;6757;52.258;12.840;2023-04-24T12:04:47;1.00;;;1.00;;
7460;SDS011;6757;52.258;12.840;2023-04-24T12:07:14;2.63;;;1.33;;
7460;SDS011;6757;52.258;12.840;2023-04-24T12:09:42;2.78;;;1.35;;
7460;SDS011;6757;52.258;12.840;2023-04-24T12:12:10;1.17;;;1.08;;
7460;SDS011;6757;52.258;12.840;2023-04-24T12:14:44;0.93;;;0.93;;
7460;SDS011;6757;52.258;12.840;2023-04-24T12:17:16;0.90;;;0.90;;
7460;SDS011;6757;52.258;12.840;2023-04-24T12:19:45;1.23;;;1.23;;
7460;SDS011;6757;52.258;12.840;2023-04-24T12:22:13;2.38;;;1.27;;
7460;SDS011;6757;52.258;12.840;2023-04-24T12:24:56;0.95;;;0.95;;
7460;SDS011;6757;52.258;12.840;2023-04-24T12:27:30;0.63;;;0.63;;
7460;SDS011;6757;52.258;12.840;2023-04-24T12:29:59;1.83;;;1.38;;
7460;SDS011;6757;52.258;12.840;2023-04-24T12:32:29;1.35;;;1.25;;
7460;SDS011;6757;52.258;12.840;2023-04-24T12:34:57;1.85;;;1.02;;
7460;SDS011;6757;52.258;12.840;2023-04-24T12:37:24;1.45;;;1.35;;
7460;SDS011;6757;52.258;12.840;2023-04-24T12:39:59;1.48;;;0.95;;
7460;SDS011;6757;52.258;12.840;2023-04-24T12:42:28;0.90;;;0.88;;
7460;SDS011;6757;52.258;12.840;2023-04-24T12:44:56;1.20;;;1.10;;
7460;SDS011;6757;52.258;12.840;2023-04-24T12:47:25;1.08;;;1.08;;
7460;SDS011;6757;52.258;12.840;2023-04-24T12:49:54;1.95;;;1.42;;
7460;SDS011;6757;52.258;12.840;2023-04-24T12:52:21;1.05;;;1.05;;
7460;SDS011;6757;52.258;12.840;2023-04-24T12:54:50;0.82;;;0.80;;
7460;SDS011;6757;52.258;12.840;2023-04-24T12:57:19;1.42;;;1.33;;
7460;SDS011;6757;52.258;12.840;2023-04-24T12:59:46;1.67;;;1.30;;
7460;SDS011;6757;52.258;12.840;2023-04-24T13:02:13;0.50;;;0.50;;
7460;SDS011;6757;52.258;12.840;2023-04-24T13:04:42;2.03;;;1.50;;
7460;SDS011;6757;52.258;12.840;2023-04-24T13:07:12;1.23;;;1.20;;
7460;SDS011;6757;52.258;12.840;2023-04-24T13:09:39;1.55;;;1.02;;
7460;SDS011;6757;52.258;12.840;2023-04-24T13:12:07;1.85;;;1.27;;
7460;SDS011;6757;52.258;12.840;2023-04-24T13:14:34;1.20;;;1.10;;
7460;SDS011;6757;52.258;12.840;2023-04-24T13:17:02;2.35;;;1.30;;
7460;SDS011;6757;52.258;12.840;2023-04-24T13:19:29;1.20;;;1.13;;
7460;SDS011;6757;52.258;12.840;2023-04-24T13:22:02;1.33;;;1.27;;
7460;SDS011;6757;52.258;12.840;2023-04-24T13:24:31;1.58;;;1.17;;
7460;SDS011;6757;52.258;12.840;2023-04-24T13:26:58;0.75;;;0.65;;
7460;SDS011;6757;52.258;12.840;2023-04-24T13:29:26;1.30;;;1.30;;
7460;SDS011;6757;52.258;12.840;2023-04-24T13:31:53;1.23;;;1.10;;
7460;SDS011;6757;52.258;12.840;2023-04-24T13:34:21;1.67;;;1.58;;
7460;SDS011;6757;52.258;12.840;2023-04-24T13:36:48;0.90;;;0.90;;
7460;SDS011;6757;52.258;12.840;2023-04-24T13:39:16;1.83;;;1.25;;
7460;SDS011;6757;52.258;12.840;2023-04-24T13:41:45;1.40;;;1.30;;
7460;SDS011;6757;52.258;12.840;2023-04-24T13:44:13;2.05;;;1.50;;
7460;SDS011;6757;52.258;12.840;2023-04-24T13:46:41;1.33;;;1.23;;
7460;SDS011;6757;52.258;12.840;2023-04-24T13:49:10;2.20;;;1.63;;
7460;SDS011;6757;52.258;12.840;2023-04-24T13:51:37;1.30;;;1.30;;
7460;SDS011;6757;52.258;12.840;2023-04-24T13:54:05;1.60;;;1.50;;
7460;SDS011;6757;52.258;12.840;2023-04-24T13:56:32;2.15;;;1.30;;
7460;SDS011;6757;52.258;12.840;2023-04-24T13:59:01;0.93;;;0.93;;
7460;SDS011;6757;52.258;12.840;2023-04-24T14:01:28;1.23;;;1.13;;
7460;SDS011;6757;52.258;12.840;2023-04-24T14:03:55;2.00;;;1.23;;
7460;SDS011;6757;52.258;12.840;2023-04-24T14:06:22;2.15;;;1.20;;
7460;SDS011;6757;52.258;12.840;2023-04-24T14:08:49;1.40;;;1.30;;
7460;SDS011;6757;52.258;12.840;2023-04-24T14:11:17;1.75;;;1.33;;
7460;SDS011;6757;52.258;12.840;2023-04-24T14:13:45;1.45;;;1.17;;
7460;SDS011;6757;52.258;12.840;2023-04-24T14:16:14;1.25;;;1.23;;
7460;SDS011;6757;52.258;12.840;2023-04-24T14:18:41;1.30;;;1.20;;
7460;SDS011;6757;52.258;12.840;2023-04-24T14:21:08;1.98;;;1.40;;
7460;SDS011;6757;52.258;12.840;2023-04-24T14:23:35;1.33;;;1.23;;
7460;SDS011;6757;52.258;12.840;2023-04-24T14:26:02;1.60;;;1.50;;
7460;SDS011;6757;52.258;12.840;2023-04-24T14:28:29;1.77;;;1.27;;
7460;SDS011;6757;52.258;12.840;2023-04-24T14:30:56;1.48;;;1.20;;
7460;SDS011;6757;52.258;12.840;2023-04-24T14:33:24;1.17;;;1.15;;
7460;SDS011;6757;52.258;12.840;2023-04-24T14:35:51;3.70;;;1.70;;
7460;SDS011;6757;52.258;12.840;2023-04-24T14:38:18;1.48;;;1.38;;
7460;SDS011;6757;52.258;12.840;2023-04-24T14:40:45;1.73;;;1.40;;
7460;SDS011;6757;52.258;12.840;2023-04-24T14:43:12;3.15;;;1.80;;
7460;SDS011;6757;52.258;12.840;2023-04-24T14:45:39;1.35;;;1.30;;
7460;SDS011;6757;52.258;12.840;2023-04-24T14:48:07;1.60;;;1.50;;
7460;SDS011;6757;52.258;12.840;2023-04-24T14:50:35;1.30;;;1.20;;
7460;SDS011;6757;52.258;12.840;2023-04-24T14:53:02;1.52;;;1.42;;
7460;SDS011;6757;52.258;12.840;2023-04-24T14:55:30;1.48;;;1.40;;
7460;SDS011;6757;52.258;12.840;2023-04-24T14:57:58;2.72;;;1.63;;
7460;SDS011;6757;52.258;12.840;2023-04-24T15:00:25;1.95;;;1.38;;
7460;SDS011;6757;52.258;12.840;2023-04-24T15:02:52;7.03;;;1.67;;
7460;SDS011;6757;52.258;12.840;2023-04-24T15:05:20;2.90;;;1.50;;
7460;SDS011;6757;52.258;12.840;2023-04-24T15:07:49;1.15;;;1.15;;
7460;SDS011;6757;52.258;12.840;2023-04-24T15:10:16;2.40;;;1.45;;
7460;SDS011;6757;52.258;12.840;2023-04-24T15:12:43;1.42;;;1.33;;
7460;SDS011;6757;52.258;12.840;2023-04-24T15:15:10;1.65;;;1.40;;
7460;SDS011;6757;52.258;12.840;2023-04-24T15:17:37;2.00;;;1.33;;